Time;durP1;ratioP1;P1;durP2;ratioP2;P2;SDS_P1;SDS_P2;PMS_P1;PMS_P2;Temp;Humidity;BMP_temperature;BMP_pressure;BME280_temperature;BME280_humidity;BME280_pressure;Samples;Min_cycle;Max_cycle;Signal;HPM_P1;HPM_P2
2021/05/29 12:24:26;;;;;;;2.97;1.60;;;35.60;40.00;;;;;;5002358;22;20295;-92
2021/05/29 12:27:33;;;;;;;2.25;1.63;;;36.00;39.30;;;;;;4907800;29;20196;-92
2021/05/29 12:30:31;;;;;;;5.63;2.15;;;36.20;38.60;;;;;;4900256;29;20224;-91
2021/05/29 12:32:58;;;;;;;4.93;2.20;;;36.40;39.00;;;;;;4900878;29;20277;-80
2021/05/29 12:35:37;;;;;;;2.47;2.28;;;36.90;38.20;;;;;;4898533;28;20681;-80
2021/05/29 12:38:18;;;;;;;2.35;2.03;;;36.80;38.40;;;;;;4961668;28;20557;-81
2021/05/29 12:41:11;;;;;;;2.45;1.90;;;37.10;38.10;;;;;;4961545;28;20185;-83
2021/05/29 12:43:38;;;;;;;2.88;2.05;;;37.60;38.50;;;;;;4955550;29;20167;-81
2021/05/29 12:46:05;;;;;;;2.17;1.92;;;38.00;37.60;;;;;;4955431;29;20632;-81
2021/05/29 12:48:31;;;;;;;2.28;2.08;;;38.10;37.50;;;;;;4971343;28;20256;-80
2021/05/29 12:51:09;;;;;;;5.80;2.00;;;38.00;36.80;;;;;;4974203;28;20175;-81
2021/05/29 12:53:37;;;;;;;3.65;1.70;;;37.90;36.70;;;;;;4973971;28;20583;-81
2021/05/29 12:56:07;;;;;;;4.95;2.22;;;38.30;36.60;;;;;;4974459;28;20201;-80
2021/05/29 12:58:33;;;;;;;2.17;1.98;;;38.60;35.90;;;;;;4957061;28;20277;-81
2021/05/29 13:11:55;;;;;;;4.07;2.30;;;36.00;36.70;;;;;;4968221;28;20209;-80
2021/05/29 13:14:31;;;;;;;4.18;2.65;;;34.40;38.50;;;;;;4966007;28;20198;-82
2021/05/29 13:16:59;;;;;;;3.13;2.00;;;33.20;39.20;;;;;;4954826;29;20257;-81
2021/05/29 13:19:30;;;;;;;2.30;2.00;;;32.80;39.30;;;;;;4964151;28;20179;-81
2021/05/29 13:21:58;;;;;;;4.63;2.10;;;33.50;38.70;;;;;;4973804;28;20204;-81
2021/05/29 13:24:46;;;;;;;3.65;1.52;;;34.60;38.60;;;;;;4974141;28;20265;-81
2021/05/29 13:27:25;;;;;;;3.53;1.67;;;36.00;38.90;;;;;;4973776;28;20534;-81
2021/05/29 13:29:55;;;;;;;2.60;1.63;;;37.10;36.50;;;;;;4973480;28;20304;-81
2021/05/29 13:32:22;;;;;;;3.80;2.00;;;37.80;35.90;;;;;;4974133;28;20257;-81
2021/05/29 13:34:50;;;;;;;2.42;2.10;;;37.80;35.70;;;;;;4974931;28;20217;-81
2021/05/29 13:37:16;;;;;;;2.40;2.00;;;37.70;35.40;;;;;;4973675;28;20186;-81
2021/05/29 13:39:43;;;;;;;2.35;2.00;;;37.80;34.90;;;;;;4974033;28;20178;-81
2021/05/29 13:42:09;;;;;;;3.80;1.70;;;37.80;35.20;;;;;;4957010;28;20170;-82
2021/05/29 13:44:36;;;;;;;3.25;1.95;;;38.30;34.50;;;;;;4974234;28;20245;-81
2021/05/29 13:47:03;;;;;;;1.50;1.38;;;38.30;34.50;;;;;;4974093;28;20273;-83
2021/05/29 13:49:29;;;;;;;1.58;1.35;;;38.40;35.10;;;;;;4960695;28;20238;-82
2021/05/29 13:51:55;;;;;;;1.63;1.30;;;38.50;34.80;;;;;;4960319;28;20174;-80
2021/05/29 13:54:20;;;;;;;3.05;1.80;;;38.60;34.60;;;;;;4958067;28;20253;-83
2021/05/29 13:56:46;;;;;;;2.33;1.48;;;37.90;34.30;;;;;;4977646;28;20175;-83
2021/05/29 13:59:13;;;;;;;6.05;1.90;;;36.50;35.60;;;;;;4960563;28;20257;-83
2021/05/29 14:01:40;;;;;;;3.17;2.13;;;35.20;36.20;;;;;;4960263;28;20281;-83
2021/05/29 14:04:05;;;;;;;2.47;1.80;;;34.50;36.90;;;;;;4959693;28;20518;-83
2021/05/29 14:06:35;;;;;;;3.60;1.70;;;34.90;37.00;;;;;;4959966;28;20193;-83
2021/05/29 14:09:02;;;;;;;2.15;1.60;;;34.50;36.80;;;;;;4977279;28;20206;-83
2021/05/29 14:11:31;;;;;;;2.85;1.30;;;33.60;37.10;;;;;;4960371;28;20179;-82
2021/05/29 14:13:59;;;;;;;1.50;1.40;;;33.40;37.70;;;;;;4977192;28;20213;-83
2021/05/29 14:16:26;;;;;;;2.38;1.63;;;34.00;36.90;;;;;;4960341;28;20186;-83
2021/05/29 14:18:52;;;;;;;1.65;1.33;;;35.10;36.20;;;;;;4977359;28;20269;-83
2021/05/29 14:21:18;;;;;;;1.50;1.33;;;36.00;35.90;;;;;;4960001;28;20289;-83
2021/05/29 14:23:44;;;;;;;1.95;1.50;;;37.00;35.40;;;;;;4977097;28;20186;-82
2021/05/29 14:26:11;;;;;;;3.10;1.63;;;37.80;35.50;;;;;;4959965;28;20185;-82
2021/05/29 14:28:37;;;;;;;3.03;1.42;;;38.20;34.90;;;;;;4959398;28;20210;-82
2021/05/29 14:31:05;;;;;;;2.10;1.23;;;38.20;35.20;;;;;;4960092;28;20575;-83
2021/05/29 14:33:32;;;;;;;2.92;1.40;;;36.80;35.70;;;;;;4958694;28;20273;-81
2021/05/29 14:36:00;;;;;;;2.28;1.23;;;35.70;36.10;;;;;;4977803;28;20194;-82
2021/05/29 14:38:25;;;;;;;1.35;1.20;;;34.60;36.60;;;;;;4952206;28;20605;-82
2021/05/29 14:40:51;;;;;;;3.17;1.50;;;33.70;37.00;;;;;;4977908;28;20163;-82
2021/05/29 14:43:18;;;;;;;3.38;1.40;;;32.80;37.40;;;;;;4959944;28;20678;-82
2021/05/29 14:45:44;;;;;;;1.95;1.15;;;32.40;39.00;;;;;;4977595;28;20175;-82
2021/05/29 14:48:09;;;;;;;2.88;1.50;;;33.40;37.80;;;;;;4960178;28;20643;-83
2021/05/29 14:50:35;;;;;;;2.92;1.52;;;34.50;37.70;;;;;;4976987;28;20682;-83
2021/05/29 14:53:01;;;;;;;2.78;2.05;;;35.00;38.00;;;;;;4959209;28;20668;-82
2021/05/29 14:55:28;;;;;;;2.20;1.80;;;34.20;38.20;;;;;;4976574;28;20249;-82
2021/05/29 14:57:55;;;;;;;2.65;1.90;;;33.50;38.50;;;;;;4958377;28;20182;-82
2021/05/29 15:00:20;;;;;;;5.25;1.80;;;32.70;40.10;;;;;;4976167;28;20240;-89
2021/05/29 15:02:49;;;;;;;1.83;1.73;;;32.30;39.90;;;;;;4975631;28;20179;-82
2021/05/29 15:05:15;;;;;;;3.55;1.90;;;32.30;39.80;;;;;;4976397;28;20182;-84
2021/05/29 15:07:41;;;;;;;5.30;1.90;;;32.20;39.70;;;;;;4959008;28;20222;-84
2021/05/29 15:10:07;;;;;;;5.82;1.90;;;32.50;39.70;;;;;;4959153;28;20313;-85
2021/05/29 15:12:33;;;;;;;2.30;1.73;;;33.40;38.70;;;;;;4959635;28;20185;-83
2021/05/29 15:14:59;;;;;;;3.70;1.58;;;33.60;38.30;;;;;;4958303;28;20179;-83
2021/05/29 15:17:24;;;;;;;1.35;1.25;;;33.40;38.20;;;;;;4969698;28;20552;-83
2021/05/29 15:19:50;;;;;;;2.58;1.90;;;33.10;38.60;;;;;;4976365;28;20261;-83
2021/05/29 15:22:18;;;;;;;3.00;1.60;;;33.50;38.40;;;;;;4958960;28;20209;-83
2021/05/29 15:24:47;;;;;;;1.58;1.48;;;34.10;37.20;;;;;;4968964;28;20647;-82
2021/05/29 15:27:12;;;;;;;1.45;1.30;;;33.80;38.20;;;;;;4950249;28;20186;-82
2021/05/29 15:29:40;;;;;;;2.63;1.40;;;33.10;38.30;;;;;;4967081;28;20742;-83
2021/05/29 15:32:08;;;;;;;4.03;1.77;;;32.50;38.80;;;;;;4951333;28;20195;-83
2021/05/29 15:34:34;;;;;;;2.20;1.45;;;31.90;38.90;;;;;;4969973;28;20690;-82
2021/05/29 15:37:00;;;;;;;4.05;1.65;;;31.00;39.60;;;;;;4952426;28;20563;-81
2021/05/29 15:39:26;;;;;;;4.23;1.90;;;30.50;39.90;;;;;;4952163;28;20281;-82
2021/05/29 15:41:52;;;;;;;3.40;2.10;;;30.10;39.90;;;;;;4944706;28;20238;-82
2021/05/29 15:44:18;;;;;;;2.63;1.40;;;30.30;40.10;;;;;;4974817;28;20675;-82
2021/05/29 15:46:44;;;;;;;2.07;1.60;;;30.90;40.30;;;;;;4947246;28;20182;-81
2021/05/29 15:49:10;;;;;;;3.10;1.90;;;31.80;39.50;;;;;;4973438;28;20210;-82
2021/05/29 15:51:35;;;;;;;2.60;2.00;;;32.60;39.30;;;;;;4956979;28;20194;-81
2021/05/29 15:54:01;;;;;;;2.83;1.88;;;33.20;37.90;;;;;;4939590;29;20242;-82
2021/05/29 15:56:27;;;;;;;2.53;1.83;;;33.60;37.70;;;;;;4966071;28;20191;-81
2021/05/29 15:58:53;;;;;;;2.80;1.48;;;33.90;37.50;;;;;;4966633;28;20183;-82
2021/05/29 16:01:20;;;;;;;1.77;1.55;;;34.10;37.30;;;;;;4950786;28;20558;-82
2021/05/29 16:03:47;;;;;;;1.70;1.60;;;34.40;37.10;;;;;;4972788;28;20269;-82
2021/05/29 16:06:15;;;;;;;3.03;1.45;;;34.60;37.20;;;;;;4942648;28;20174;-82
2021/05/29 16:08:41;;;;;;;1.83;1.50;;;35.10;36.60;;;;;;4972175;28;20254;-82
2021/05/29 16:11:07;;;;;;;3.85;1.98;;;35.60;36.50;;;;;;4973773;28;20289;-82
2021/05/29 16:13:34;;;;;;;2.78;1.67;;;35.60;36.20;;;;;;4968939;28;20185;-82
2021/05/29 16:16:00;;;;;;;2.33;1.70;;;35.20;35.90;;;;;;4954833;28;20185;-82
2021/05/29 16:18:27;;;;;;;3.05;1.30;;;34.20;36.40;;;;;;4970243;28;20199;-82
2021/05/29 16:20:53;;;;;;;2.75;1.50;;;33.70;37.00;;;;;;4973417;28;20193;-81
2021/05/29 16:23:19;;;;;;;4.15;1.63;;;33.90;36.80;;;;;;4953386;28;20190;-82
2021/05/29 16:25:45;;;;;;;2.05;1.70;;;34.00;37.70;;;;;;4956603;28;20186;-82
2021/05/29 16:28:10;;;;;;;2.22;1.60;;;33.50;36.20;;;;;;4969816;28;20191;-81
2021/05/29 16:30:36;;;;;;;1.50;1.40;;;33.50;36.90;;;;;;4968910;28;20281;-81
2021/05/29 16:33:04;;;;;;;2.38;1.52;;;32.80;37.60;;;;;;4969642;28;20644;-82
2021/05/29 16:35:38;;;;;;;1.85;1.42;;;32.80;37.40;;;;;;4952226;28;20210;-83
2021/05/29 16:38:04;;;;;;;2.28;1.30;;;33.00;38.00;;;;;;4953187;28;20166;-82
2021/05/29 16:40:29;;;;;;;2.58;1.60;;;32.90;38.50;;;;;;4971753;28;20674;-82
2021/05/29 16:42:56;;;;;;;3.75;1.42;;;32.50;38.70;;;;;;4972044;28;20273;-82
2021/05/29 16:45:22;;;;;;;1.98;1.63;;;32.20;39.10;;;;;;4971266;28;20178;-81
2021/05/29 16:47:51;;;;;;;2.28;1.90;;;31.90;39.70;;;;;;4947905;28;20198;-81
2021/05/29 16:50:18;;;;;;;3.00;1.55;;;31.90;39.10;;;;;;4963473;28;20218;-81
2021/05/29 16:52:44;;;;;;;3.72;1.60;;;32.00;39.30;;;;;;4967963;28;20178;-81
2021/05/29 16:55:10;;;;;;;2.60;1.67;;;32.40;39.40;;;;;;4966689;28;20253;-81
2021/05/29 16:57:42;;;;;;;2.78;2.00;;;32.60;39.00;;;;;;4949964;28;20197;-92
2021/05/29 17:00:19;;;;;;;3.15;1.20;;;32.80;38.90;;;;;;4953310;28;20277;-93
2021/05/29 17:02:46;;;;;;;2.90;1.55;;;33.10;38.90;;;;;;4954814;28;20190;-94
2021/05/29 17:05:13;;;;;;;2.55;1.40;;;33.30;38.80;;;;;;4953673;28;20182;-93
2021/05/29 17:07:48;;;;;;;3.33;1.30;;;33.40;38.10;;;;;;4954667;28;20182;-93
2021/05/29 17:10:31;;;;;;;3.30;1.70;;;33.50;38.30;;;;;;4955486;28;20247;-92
2021/05/29 17:13:00;;;;;;;1.92;1.63;;;33.50;38.70;;;;;;4952282;28;20643;-92
2021/05/29 17:15:26;;;;;;;1.48;1.38;;;33.60;38.60;;;;;;4957822;28;20564;-92
2021/05/29 17:17:55;;;;;;;1.70;1.60;;;33.50;38.20;;;;;;4956821;28;20523;-92
2021/05/29 17:20:22;;;;;;;3.45;1.60;;;33.50;38.00;;;;;;4935879;28;20545;-93
2021/05/29 17:23:16;;;;;;;1.88;1.40;;;33.40;38.70;;;;;;4953047;28;20222;-93
2021/05/29 17:25:50;;;;;;;2.10;1.60;;;33.40;38.90;;;;;;4952123;28;20226;-92
2021/05/29 17:28:23;;;;;;;2.75;1.67;;;33.30;39.10;;;;;;4966831;28;20643;-93
2021/05/29 17:30:59;;;;;;;3.72;2.17;;;33.00;39.10;;;;;;4955131;28;20198;-92
2021/05/29 17:33:25;;;;;;;2.92;1.77;;;33.00;39.50;;;;;;4954822;28;20186;-93
2021/05/29 17:35:53;;;;;;;3.20;1.90;;;32.80;39.80;;;;;;4955131;28;20241;-93
2021/05/29 17:38:23;;;;;;;2.85;1.77;;;32.70;40.20;;;;;;4950119;28;20626;-93
2021/05/29 17:40:51;;;;;;;3.35;2.25;;;32.60;39.90;;;;;;4954122;28;20190;-92
2021/05/29 17:43:57;;;;;;;2.75;2.47;;;32.60;40.30;;;;;;4955229;28;20233;-92
2021/05/29 17:46:25;;;;;;;2.72;1.73;;;32.40;40.20;;;;;;4940772;28;20209;-93
2021/05/29 17:48:59;;;;;;;2.23;2.00;;;32.20;40.50;;;;;;4948734;28;20205;-93
2021/05/29 17:51:25;;;;;;;3.80;2.27;;;32.00;40.60;;;;;;4951905;28;20656;-93
2021/05/29 17:53:52;;;;;;;3.37;2.27;;;32.00;40.70;;;;;;4954623;28;20190;-93
2021/05/29 17:56:18;;;;;;;2.60;2.07;;;31.80;41.00;;;;;;4955855;28;20639;-93
2021/05/29 18:01:31;;;;;;;2.70;2.20;;;31.40;41.70;;;;;;4969986;28;20191;-93
2021/05/29 18:04:09;;;;;;;4.17;2.90;;;31.30;41.70;;;;;;4957246;28;20193;-93
2021/05/29 18:06:40;;;;;;;4.60;2.40;;;31.10;41.60;;;;;;4952801;28;20639;-94
2021/05/29 18:09:06;;;;;;;2.50;2.23;;;30.70;42.40;;;;;;4944862;28;20233;-92
2021/05/29 18:11:35;;;;;;;3.23;2.60;;;30.50;42.90;;;;;;4966107;28;20222;-92
2021/05/29 18:14:02;;;;;;;3.93;3.30;;;30.40;43.20;;;;;;4950558;28;20213;-93
2021/05/29 18:16:28;;;;;;;5.57;2.73;;;30.20;43.60;;;;;;4953740;28;20187;-93
2021/05/29 18:18:53;;;;;;;3.30;2.80;;;29.90;44.10;;;;;;4955800;28;20640;-92
2021/05/29 18:21:19;;;;;;;4.87;2.90;;;29.70;44.30;;;;;;4952963;28;20233;-92
2021/05/29 18:23:48;;;;;;;3.90;2.77;;;29.50;44.90;;;;;;4936327;29;20559;-93
2021/05/29 18:26:16;;;;;;;3.20;2.53;;;29.50;44.80;;;;;;4955822;28;20210;-92
2021/05/29 18:28:46;;;;;;;3.70;2.80;;;29.40;45.20;;;;;;4946112;28;20179;-92
2021/05/29 18:31:11;;;;;;;4.77;2.90;;;29.20;45.30;;;;;;4946329;28;20618;-91
2021/05/29 18:33:39;;;;;;;3.47;2.70;;;29.10;45.40;;;;;;4955053;28;20199;-92
2021/05/29 18:41:27;;;;;;;4.77;3.10;;;28.60;46.00;;;;;;4971931;28;20237;-91
2021/05/29 18:43:54;;;;;;;6.20;3.40;;;28.30;46.80;;;;;;4963880;28;20202;-91
2021/05/29 18:46:20;;;;;;;3.50;3.00;;;28.20;46.90;;;;;;4960565;28;20190;-91
2021/05/29 19:11:37;;;;;;;4.67;3.47;;;26.10;50.50;;;;;;4729570;30;20206;-94
2021/05/29 21:59:48;;;;;;;;;;;;;;;;;;;;;
2021/05/29 22:07:02;;;;;;;;;;;;;;;;;;;;;
2021/05/29 22:10:49;;;;;;;;;;;;;;;;;;;;;
2021/05/29 22:31:04;;;;;;;;;;;;;;;;;;;;;
2021/05/29 22:48:24;;;;;;;;;;;;;;;;;;;;;
2021/05/29 22:51:34;;;;;;;10.70;7.13;;;19.20;72.70;;;;;;6158697;23;20263;-92
2021/05/29 22:54:39;;;;;;;;;;;;;;;;;;;;;
2021/05/29 22:57:27;;;;;;;14.80;8.20;;;19.20;73.40;;;;;;6216264;23;20676;-93
2021/05/29 23:00:24;;;;;;;;;;;;;;;;;;;;;
2021/05/29 23:03:20;;;;;;;;;;;;;;;;;;;;;
2021/05/29 23:06:37;;;;;;;;;;;;;;;;;;;;;
2021/05/29 23:09:49;;;;;;;;;;;;;;;;;;;;;
2021/05/29 23:20:28;;;;;;;;;;;;;;;;;;;;;
2021/05/29 23:27:08;;;;;;;;;;;;;;;;;;;;;
2021/05/29 23:40:10;;;;;;;;;;;;;;;;;;;;;
